Time,TemperatureF,DewpointF,PressureIn,WindDirection,WindDirectionDegrees,WindSpeedMPH,WindSpeedGustMPH,Humidity,HourlyPrecipIn,Conditions,Clouds,dailyrainin,SolarRadiationWatts/m^2,SoftwareType,DateUTC
2013-05-17 00:03:00,59.0,55.0,-100.00,NNE,12,1.0,2.0,87,0.00,,,0.00,0.000000,,2013-05-17 04:03:00,
2013-05-17 00:11:00,57.0,55.0,-100.00,NNW,331,0.0,3.0,92,0.00,,,0.00,0.000000,,2013-05-17 04:11:00,
2013-05-17 00:34:00,57.0,55.0,-100.00,NNW,331,0.0,3.0,92,0.00,,,0.00,0.000000,,2013-05-17 04:34:00,
2013-05-17 00:43:00,57.0,55.0,-100.00,NNW,331,0.0,3.0,92,0.00,,,0.00,0.000000,,2013-05-17 04:43:00,
2013-05-17 00:53:00,57.0,55.0,-100.00,NNW,331,0.0,3.0,92,0.00,,,0.00,0.000000,,2013-05-17 04:53:00,
2013-05-17 01:03:00,57.0,55.0,-100.00,NNW,331,0.0,3.0,92,0.00,,,0.00,0.000000,,2013-05-17 05:03:00,
2013-05-17 01:11:00,56.0,55.0,-100.00,NW,306,1.0,2.0,95,0.00,,,0.00,0.000000,,2013-05-17 05:11:00,
2013-05-17 01:32:00,56.0,55.0,-100.00,NW,306,1.0,2.0,95,0.00,,,0.00,0.000000,,2013-05-17 05:32:00,
2013-05-17 01:43:00,56.0,55.0,-100.00,NW,306,1.0,2.0,95,0.00,,,0.00,0.000000,,2013-05-17 05:43:00,
2013-05-17 01:52:00,56.0,55.0,-100.00,NW,306,1.0,2.0,95,0.00,,,0.00,0.000000,,2013-05-17 05:52:00,
2013-05-17 02:02:00,56.0,55.0,-100.00,NW,306,1.0,2.0,95,0.00,,,0.00,0.000000,,2013-05-17 06:02:00,
2013-05-17 02:11:00,55.0,54.0,-100.00,NW,325,0.0,2.0,96,0.00,,,0.00,0.000000,,2013-05-17 06:11:00,
2013-05-17 02:42:00,55.0,54.0,-100.00,NW,325,0.0,2.0,96,0.00,,,0.00,0.000000,,2013-05-17 06:42:00,
2013-05-17 02:52:00,55.0,54.0,-100.00,NW,325,0.0,2.0,96,0.00,,,0.00,0.000000,,2013-05-17 06:52:00,
2013-05-17 03:03:00,55.0,54.0,-100.00,NW,325,0.0,2.0,96,0.00,,,0.00,0.000000,,2013-05-17 07:03:00,
2013-05-17 03:11:00,54.0,53.0,-100.00,NW,316,1.0,2.0,97,0.00,,,0.00,0.000000,,2013-05-17 07:11:00,
2013-05-17 03:43:00,54.0,53.0,-100.00,NW,316,1.0,2.0,97,0.00,,,0.00,0.000000,,2013-05-17 07:43:00,
2013-05-17 03:53:00,54.0,53.0,-100.00,NW,316,1.0,2.0,97,0.00,,,0.00,0.000000,,2013-05-17 07:53:00,
2013-05-17 04:02:00,54.0,53.0,-100.00,NW,316,1.0,2.0,97,0.00,,,0.00,0.000000,,2013-05-17 08:02:00,
2013-05-17 04:11:00,54.0,53.0,-100.00,NW,321,1.0,2.0,98,0.00,,,0.00,0.000000,,2013-05-17 08:11:00,
2013-05-17 04:43:00,54.0,53.0,-100.00,NW,321,1.0,2.0,98,0.00,,,0.00,0.000000,,2013-05-17 08:43:00,
2013-05-17 04:52:00,54.0,53.0,-100.00,NW,321,1.0,2.0,98,0.00,,,0.00,0.000000,,2013-05-17 08:52:00,
2013-05-17 05:02:00,54.0,53.0,-100.00,NW,321,1.0,2.0,98,0.00,,,0.00,0.000000,,2013-05-17 09:02:00,
2013-05-17 05:11:00,54.0,53.0,-100.00,NW,323,1.0,1.0,98,0.00,,,0.00,0.000000,,2013-05-17 09:11:00,
2013-05-17 05:33:00,54.0,53.0,-100.00,NW,323,1.0,1.0,98,0.00,,,0.00,0.000000,,2013-05-17 09:33:00,
2013-05-17 05:42:00,54.0,53.0,-100.00,NW,323,1.0,1.0,98,0.00,,,0.00,0.000000,,2013-05-17 09:42:00,
2013-05-17 05:53:00,54.0,53.0,-100.00,NW,323,1.0,1.0,98,0.00,,,0.00,0.000000,,2013-05-17 09:53:00,
2013-05-17 06:03:00,54.0,53.0,-100.00,NW,323,1.0,1.0,98,0.00,,,0.00,0.000000,,2013-05-17 10:03:00,
2013-05-17 06:11:00,55.0,54.0,-100.00,West,269,0.0,3.0,98,0.00,,,0.00,0.000000,,2013-05-17 10:11:00,
2013-05-17 06:42:00,55.0,54.0,-100.00,West,269,0.0,3.0,98,0.00,,,0.00,0.000000,,2013-05-17 10:42:00,
2013-05-17 06:54:00,55.0,54.0,-100.00,West,269,0.0,3.0,98,0.00,,,0.00,0.000000,,2013-05-17 10:54:00,
2013-05-17 07:02:00,55.0,54.0,-100.00,West,269,0.0,3.0,98,0.00,,,0.00,0.000000,,2013-05-17 11:02:00,
2013-05-17 07:11:00,56.0,55.0,-100.00,SSW,207,0.0,2.0,97,0.00,,,0.00,49.000000,,2013-05-17 11:11:00,
2013-05-17 07:34:00,56.0,55.0,-100.00,SSW,207,0.0,2.0,97,0.00,,,0.00,49.000000,,2013-05-17 11:34:00,
2013-05-17 07:42:00,56.0,55.0,-100.00,SSW,207,0.0,2.0,97,0.00,,,0.00,49.000000,,2013-05-17 11:42:00,
2013-05-17 07:53:00,56.0,55.0,-100.00,SSW,207,0.0,2.0,97,0.00,,,0.00,49.000000,,2013-05-17 11:53:00,
2013-05-17 08:03:00,56.0,55.0,-100.00,SSW,207,0.0,2.0,97,0.00,,,0.00,49.000000,,2013-05-17 12:03:00,
2013-05-17 08:11:00,59.0,58.0,-100.00,WNW,295,0.0,2.0,95,0.00,,,0.00,80.000000,,2013-05-17 12:11:00,
2013-05-17 08:33:00,59.0,58.0,-100.00,WNW,295,0.0,2.0,95,0.00,,,0.00,80.000000,,2013-05-17 12:33:00,
2013-05-17 08:43:00,59.0,58.0,-100.00,WNW,295,0.0,2.0,95,0.00,,,0.00,80.000000,,2013-05-17 12:43:00,
2013-05-17 08:53:00,59.0,58.0,-100.00,WNW,295,0.0,2.0,95,0.00,,,0.00,80.000000,,2013-05-17 12:53:00,
2013-05-17 09:04:00,59.0,58.0,-100.00,WNW,295,0.0,2.0,95,0.00,,,0.00,80.000000,,2013-05-17 13:04:00,
2013-05-17 09:11:00,68.0,62.0,-100.00,WNW,298,2.0,4.0,81,0.00,,,0.00,341.000000,,2013-05-17 13:11:00,
2013-05-17 09:33:00,68.0,62.0,-100.00,WNW,298,2.0,4.0,81,0.00,,,0.00,341.000000,,2013-05-17 13:33:00,
2013-05-17 09:42:00,68.0,62.0,-100.00,WNW,298,2.0,4.0,81,0.00,,,0.00,341.000000,,2013-05-17 13:42:00,
2013-05-17 09:52:00,68.0,62.0,-100.00,WNW,298,2.0,4.0,81,0.00,,,0.00,341.000000,,2013-05-17 13:52:00,
2013-05-17 10:02:00,68.0,62.0,-100.00,WNW,298,2.0,4.0,81,0.00,,,0.00,341.000000,,2013-05-17 14:02:00,
2013-05-17 10:11:00,69.0,61.0,-100.00,ENE,67,2.0,5.0,75,0.00,,,0.00,312.000000,,2013-05-17 14:11:00,
2013-05-17 10:43:00,69.0,61.0,-100.00,ENE,67,2.0,5.0,75,0.00,,,0.00,312.000000,,2013-05-17 14:43:00,
2013-05-17 10:53:00,69.0,61.0,-100.00,ENE,67,2.0,5.0,75,0.00,,,0.00,312.000000,,2013-05-17 14:53:00,
2013-05-17 11:03:00,69.0,61.0,-100.00,ENE,67,2.0,5.0,75,0.00,,,0.00,312.000000,,2013-05-17 15:03:00,
2013-05-17 11:11:00,74.0,59.0,-100.00,West,261,3.0,5.0,60,0.00,,,0.00,727.000000,,2013-05-17 15:11:00,
2013-05-17 11:47:00,74.0,59.0,-100.00,West,261,3.0,5.0,60,0.00,,,0.00,727.000000,,2013-05-17 15:47:00,
2013-05-17 11:57:00,74.0,59.0,-100.00,West,261,3.0,5.0,60,0.00,,,0.00,727.000000,,2013-05-17 15:57:00,
2013-05-17 12:07:00,74.0,59.0,-100.00,West,261,3.0,5.0,60,0.00,,,0.00,727.000000,,2013-05-17 16:07:00,
2013-05-17 12:11:00,72.0,59.0,-100.00,West,274,4.0,9.0,64,0.00,,,0.00,486.000000,,2013-05-17 16:11:00,
2013-05-17 12:37:00,72.0,59.0,-100.00,West,274,4.0,9.0,64,0.00,,,0.00,486.000000,,2013-05-17 16:37:00,
2013-05-17 12:50:00,72.0,59.0,-100.00,West,274,4.0,9.0,64,0.00,,,0.00,486.000000,,2013-05-17 16:50:00,
2013-05-17 12:56:00,72.0,59.0,-100.00,West,274,4.0,9.0,64,0.00,,,0.00,486.000000,,2013-05-17 16:56:00,
2013-05-17 13:08:00,72.0,59.0,-100.00,West,274,4.0,9.0,64,0.00,,,0.00,486.000000,,2013-05-17 17:08:00,
2013-05-17 13:11:00,72.0,55.0,-100.00,NW,305,1.0,11.0,56,0.00,,,0.00,537.000000,,2013-05-17 17:11:00,
2013-05-17 13:40:00,72.0,-99.9,-100.00,NW,305,1.0,11.0,56,0.00,,,0.00,537.000000,,2013-05-17 17:40:00,
2013-05-17 13:49:00,72.0,55.0,-100.00,NW,305,1.0,11.0,56,0.00,,,0.00,537.000000,,2013-05-17 17:49:00,
2013-05-17 14:00:00,72.0,-99.9,-100.00,NW,305,1.0,11.0,56,0.00,,,0.00,537.000000,,2013-05-17 18:00:00,
2013-05-17 14:09:00,72.0,55.0,-100.00,NW,305,1.0,11.0,56,0.00,,,0.00,537.000000,,2013-05-17 18:09:00,
2013-05-17 14:11:00,76.0,59.0,-100.00,ESE,116,2.0,5.0,55,0.01,,,0.01,539.000000,,2013-05-17 18:11:00,
2013-05-17 14:50:00,-999.0,-99.9,-100.00,ESE,116,2.0,5.0,55,0.01,,,0.01,539.000000,,2013-05-17 18:50:00,
2013-05-17 15:00:00,76.0,-99.9,-100.00,ESE,116,2.0,5.0,55,0.01,,,0.01,539.000000,,2013-05-17 19:00:00,
2013-05-17 15:10:00,76.0,59.0,-100.00,ESE,116,2.0,5.0,55,0.01,,,0.01,539.000000,,2013-05-17 19:10:00,
2013-05-17 15:11:00,76.0,62.0,-100.00,SE,124,3.0,5.0,61,0.00,,,0.01,433.000000,,2013-05-17 19:11:00,
2013-05-17 15:41:00,76.0,62.0,-100.00,SE,124,3.0,5.0,61,0.00,,,0.01,433.000000,,2013-05-17 19:41:00,
2013-05-17 15:51:00,76.0,62.0,-100.00,SE,124,3.0,5.0,61,0.00,,,0.01,433.000000,,2013-05-17 19:51:00,
2013-05-17 16:01:00,-999.0,-99.9,-100.00,SE,124,3.0,5.0,61,0.00,,,0.01,433.000000,,2013-05-17 20:01:00,
2013-05-17 16:10:00,76.0,62.0,-100.00,SE,124,3.0,5.0,61,0.00,,,0.01,433.000000,,2013-05-17 20:10:00,
2013-05-17 16:11:00,76.0,59.0,-100.00,East,82,2.0,4.0,56,0.00,,,0.01,436.000000,,2013-05-17 20:11:00,
2013-05-17 16:50:00,76.0,59.0,-100.00,East,82,2.0,4.0,56,0.00,,,0.01,436.000000,,2013-05-17 20:50:00,
2013-05-17 16:58:00,76.0,59.0,-100.00,East,82,2.0,4.0,56,0.00,,,0.01,436.000000,,2013-05-17 20:58:00,
2013-05-17 17:07:00,76.0,59.0,-100.00,East,82,2.0,4.0,56,0.00,,,0.01,436.000000,,2013-05-17 21:07:00,
2013-05-17 17:11:00,74.0,61.0,-100.00,SE,144,3.0,6.0,63,0.00,,,0.01,391.000000,,2013-05-17 21:11:00,
2013-05-17 17:39:00,74.0,61.0,-100.00,SE,144,3.0,6.0,63,0.00,,,0.01,391.000000,,2013-05-17 21:39:00,
2013-05-17 17:49:00,74.0,61.0,-100.00,SE,144,3.0,6.0,63,0.00,,,0.01,391.000000,,2013-05-17 21:49:00,
2013-05-17 17:58:00,74.0,61.0,-100.00,SE,144,3.0,6.0,63,0.00,,,0.01,391.000000,,2013-05-17 21:58:00,
2013-05-17 18:07:00,74.0,61.0,-100.00,SE,144,3.0,6.0,63,0.00,,,0.01,391.000000,,2013-05-17 22:07:00,
2013-05-17 18:11:00,72.0,61.0,-100.00,SSE,162,3.0,6.0,68,0.00,,,0.01,260.000000,,2013-05-17 22:11:00,
2013-05-17 18:38:00,72.0,61.0,-100.00,SSE,162,3.0,6.0,68,0.00,,,0.01,260.000000,,2013-05-17 22:38:00,
2013-05-17 18:47:00,72.0,61.0,-100.00,SSE,162,3.0,6.0,68,0.00,,,0.01,260.000000,,2013-05-17 22:47:00,
2013-05-17 18:55:00,72.0,61.0,-100.00,SSE,162,3.0,6.0,68,0.00,,,0.01,260.000000,,2013-05-17 22:55:00,
2013-05-17 19:04:00,72.0,61.0,-100.00,SSE,162,3.0,6.0,68,0.00,,,0.01,260.000000,,2013-05-17 23:04:00,
2013-05-17 19:11:00,66.0,59.0,-100.00,East,95,2.0,5.0,78,0.11,,,0.12,78.000000,,2013-05-17 23:11:00,
2013-05-17 19:38:00,66.0,59.0,-100.00,East,95,2.0,5.0,78,0.11,,,0.12,78.000000,,2013-05-17 23:38:00,
2013-05-17 19:47:00,66.0,59.0,-100.00,East,95,2.0,5.0,78,0.11,,,0.12,78.000000,,2013-05-17 23:47:00,
2013-05-17 19:54:00,66.0,59.0,-100.00,East,95,2.0,5.0,78,0.11,,,0.12,78.000000,,2013-05-17 23:54:00,
2013-05-17 20:02:00,66.0,59.0,-100.00,East,95,2.0,5.0,78,0.11,,,0.12,78.000000,,2013-05-18 00:02:00,
2013-05-17 20:11:00,64.0,63.0,-100.00,West,259,3.0,9.0,95,0.00,,,0.12,24.000000,,2013-05-18 00:11:00,
2013-05-17 20:34:00,64.0,63.0,-100.00,West,259,3.0,9.0,95,0.00,,,0.12,24.000000,,2013-05-18 00:34:00,
2013-05-17 20:45:00,64.0,63.0,-100.00,West,259,3.0,9.0,95,0.00,,,0.12,24.000000,,2013-05-18 00:45:00,
2013-05-17 20:54:00,64.0,63.0,-100.00,West,259,3.0,9.0,95,0.00,,,0.12,24.000000,,2013-05-18 00:54:00,
2013-05-17 21:03:00,64.0,63.0,-100.00,West,259,3.0,9.0,95,0.00,,,0.12,24.000000,,2013-05-18 01:03:00,
2013-05-17 21:11:00,60.0,58.0,-100.00,West,266,4.0,8.0,94,0.60,,,0.72,1.000000,,2013-05-18 01:11:00,
2013-05-17 21:32:00,60.0,58.0,-100.00,West,266,4.0,8.0,94,0.60,,,0.72,1.000000,,2013-05-18 01:32:00,
2013-05-17 21:43:00,60.0,58.0,-100.00,West,266,4.0,8.0,94,0.60,,,0.72,1.000000,,2013-05-18 01:43:00,
2013-05-17 21:52:00,60.0,58.0,-100.00,West,266,4.0,8.0,94,0.60,,,0.72,1.000000,,2013-05-18 01:52:00,
2013-05-17 22:03:00,60.0,58.0,-100.00,West,266,4.0,8.0,94,0.60,,,0.72,1.000000,,2013-05-18 02:03:00,
2013-05-17 22:11:00,60.0,59.0,-100.00,WSW,244,2.0,6.0,97,0.01,,,0.73,0.000000,,2013-05-18 02:11:00,
2013-05-17 22:43:00,60.0,59.0,-100.00,WSW,244,2.0,6.0,97,0.01,,,0.73,0.000000,,2013-05-18 02:43:00,
2013-05-17 22:54:00,60.0,59.0,-100.00,WSW,244,2.0,6.0,97,0.01,,,0.73,0.000000,,2013-05-18 02:54:00,
2013-05-17 23:03:00,60.0,59.0,-100.00,WSW,244,2.0,6.0,97,0.01,,,0.73,0.000000,,2013-05-18 03:03:00,
2013-05-17 23:11:00,59.0,58.0,-100.00,SE,133,0.0,4.0,97,0.00,,,0.73,0.000000,,2013-05-18 03:11:00,
2013-05-17 23:33:00,59.0,58.0,-100.00,SE,133,0.0,4.0,97,0.00,,,0.73,0.000000,,2013-05-18 03:33:00,
2013-05-17 23:43:00,59.0,58.0,-100.00,SE,133,0.0,4.0,97,0.00,,,0.73,0.000000,,2013-05-18 03:43:00,
2013-05-17 23:53:00,59.0,58.0,-100.00,SE,133,0.0,4.0,97,0.00,,,0.73,0.000000,,2013-05-18 03:53:00,